C.kormakitis, Cyprus
Current Conditions -  °F | °C
As of 5:50 AM on Tuesday 27 Jan 2015 (Local Time) from LCEN Reporting Station
Clear Clear  
Wind Chill:   Ceiling: Unl
Heat Index:   Visibility: 6mi
Dew Point:   Wind: 9mph
Humidity: 76%   Direction: 260°W
Pressure: 30.06"   Gusts: NA
Location:  35.35°N, 32.95°E
Report Text: LCEN 270250Z 26008KT CAVOK 07/03 Q1018 NOSIG
Loading
Personal Weather Stations






























Interactive Weather Map New forecast layout! Learn more

10-Day Weather Forecast

Advertisements
Track Severe Weather on mobile